Summary for RAINWISE1

Rainwise Factory, Bar Harbor, ME 04609
Join the PWSweather.com Network
View data in metric units
Latest Conditions
Updated 5:25:00 AM EDT Saturday, Oct 25, 2014
Data Currently Today's Max Today's Min Today's Average
Temperature 45.2°F7.3°C 45.3°F7.4°C 43.3°F6.3°C 44.3°F6.8°C
Dew Point 42.3°F5.7°C 43.0°F6.1°C 42.1°F5.6°C 42.5°F5.8°C
Winds 6.4 mph N10.3 kmh N 7.1 mph N11.4 kmh N 4.0 mph6.4 kmh 5.5 mph8.9 kmh
Wind Gusts 11.4 mph18.3 kmh 17.6 mph28.3 kmh 7.0 mph11.3 kmh 9.9 mph15.9 kmh
Humidity 92% 97% 92% 95%
Pressure 29.64 in1003.7 mb 29.64 in1003.7 mb 29.62 in1003.0 mb 29.63 in1003.4 mb
Precipitation 0.00 in0.0 mm - - 0.00 in0.0 mm
Trends
 
Station Profile
Rainwise FactoryBar Harbor, ME 04609

Lat: 44.39, Lon: -68.208
Elevation: 29
Station Type: Rainwise MK-III

Detailed Summary for Sat, Oct 25, 2014
Hour (EDT) Temperature Dew Point Humidity Winds Wind Gusts Pressure Precip Precip Rate Daily Precip Total
05:25 AM 45.2°F7.3°C 42.3°F5.7°C 92% 6.4 mph N10.3 kmh N 11.4 mph18.3 kmh 29.64 in1003.7 mb 0.00 in0.0 mm 0.00 in/hr0.0 mm/hr 0.00 in0.0 mm
05:20 AM 45.3°F7.4°C 42.4°F5.8°C 92% 5.2 mph NNW8.4 kmh NNW 8.9 mph14.3 kmh 29.64 in1003.7 mb 0.00 in0.0 mm 0.00 in/hr0.0 mm/hr 0.00 in0.0 mm
05:15 AM 45.3°F7.4°C 42.4°F5.8°C 92% 5.4 mph NNW8.7 kmh NNW 9.8 mph15.8 kmh 29.64 in1003.7 mb 0.00 in0.0 mm 0.00 in/hr0.0 mm/hr 0.00 in0.0 mm
05:10 AM 45.2°F7.3°C 42.3°F5.7°C 92% 5.4 mph N8.7 kmh N 10.5 mph16.9 kmh 29.63 in1003.4 mb 0.00 in0.0 mm 0.00 in/hr0.0 mm/hr 0.00 in0.0 mm
05:05 AM 45.2°F7.3°C 42.7°F5.9°C 93% 5.8 mph NNE9.3 kmh NNE 11.0 mph17.7 kmh 29.63 in1003.4 mb 0.00 in0.0 mm 0.00 in/hr0.0 mm/hr 0.00 in0.0 mm
05:00 AM 45.2°F7.3°C 42.7°F5.9°C 93% 6.6 mph N10.6 kmh N 13.5 mph21.7 kmh 29.63 in1003.4 mb 0.00 in0.0 mm 0.00 in/hr0.0 mm/hr 0.00 in0.0 mm
04:55 AM 45.2°F7.3°C 43.0°F6.1°C 94% 4.9 mph N7.9 kmh N 9.8 mph15.8 kmh 29.63 in1003.4 mb 0.00 in0.0 mm 0.00 in/hr0.0 mm/hr 0.00 in0.0 mm
04:50 AM 45.1°F7.3°C 42.9°F6.1°C 94% 4.8 mph N7.7 kmh N 10.6 mph17.1 kmh 29.63 in1003.4 mb 0.00 in0.0 mm 0.00 in/hr0.0 mm/hr 0.00 in0.0 mm
04:45 AM 45.1°F7.3°C 42.9°F6.1°C 94% 5.9 mph NNW9.5 kmh NNW 11.4 mph18.3 kmh 29.63 in1003.4 mb 0.00 in0.0 mm 0.00 in/hr0.0 mm/hr 0.00 in0.0 mm
04:40 AM 45.0°F7.2°C 42.8°F6.0°C 94% 5.7 mph N9.2 kmh N 9.8 mph15.8 kmh 29.63 in1003.4 mb 0.00 in0.0 mm 0.00 in/hr0.0 mm/hr 0.00 in0.0 mm
04:35 AM 45.0°F7.2°C 42.9°F6.1°C 94% 5.4 mph N8.7 kmh N 10.0 mph16.1 kmh 29.63 in1003.4 mb 0.00 in0.0 mm 0.00 in/hr0.0 mm/hr 0.00 in0.0 mm
04:30 AM 45.1°F7.3°C 42.9°F6.1°C 94% 4.6 mph N7.4 kmh N 8.5 mph13.7 kmh 29.63 in1003.4 mb 0.00 in0.0 mm 0.00 in/hr0.0 mm/hr 0.00 in0.0 mm
04:25 AM 45.1°F7.3°C 42.9°F6.1°C 94% 6.0 mph N9.7 kmh N 13.5 mph21.7 kmh 29.63 in1003.4 mb 0.00 in0.0 mm 0.00 in/hr0.0 mm/hr 0.00 in0.0 mm
04:20 AM 45.1°F7.3°C 42.9°F6.1°C 94% 5.5 mph N8.9 kmh N 10.3 mph16.6 kmh 29.63 in1003.4 mb 0.00 in0.0 mm 0.00 in/hr0.0 mm/hr 0.00 in0.0 mm
04:15 AM 45.0°F7.2°C 42.8°F6.0°C 94% 5.9 mph N9.5 kmh N 11.9 mph19.2 kmh 29.63 in1003.4 mb 0.00 in0.0 mm 0.00 in/hr0.0 mm/hr 0.00 in0.0 mm
04:10 AM 44.9°F7.2°C 42.7°F5.9°C 94% 5.8 mph N9.3 kmh N 11.4 mph18.3 kmh 29.63 in1003.4 mb 0.00 in0.0 mm 0.00 in/hr0.0 mm/hr 0.00 in0.0 mm
04:05 AM 44.8°F7.1°C 42.6°F5.9°C 94% 5.5 mph N8.9 kmh N 9.5 mph15.3 kmh 29.63 in1003.4 mb 0.00 in0.0 mm 0.00 in/hr0.0 mm/hr 0.00 in0.0 mm
04:00 AM 44.8°F7.1°C 42.6°F5.9°C 94% 5.7 mph N9.2 kmh N 9.5 mph15.3 kmh 29.63 in1003.4 mb 0.00 in0.0 mm 0.00 in/hr0.0 mm/hr 0.00 in0.0 mm
03:55 AM 44.7°F7.1°C 42.5°F5.8°C 94% 6.0 mph N9.7 kmh N 17.6 mph28.3 kmh 29.63 in1003.4 mb 0.00 in0.0 mm 0.00 in/hr0.0 mm/hr 0.00 in0.0 mm
03:50 AM 44.7°F7.1°C 42.9°F6.1°C 95% 4.1 mph N6.6 kmh N 7.2 mph11.6 kmh 29.63 in1003.4 mb 0.00 in0.0 mm 0.00 in/hr0.0 mm/hr 0.00 in0.0 mm
03:45 AM 44.7°F7.1°C 42.9°F6.1°C 95% 4.4 mph NNE7.1 kmh NNE 7.9 mph12.7 kmh 29.63 in1003.4 mb 0.00 in0.0 mm 0.00 in/hr0.0 mm/hr 0.00 in0.0 mm
03:40 AM 44.7°F7.1°C 42.9°F6.1°C 95% 4.1 mph N6.6 kmh N 7.0 mph11.3 kmh 29.63 in1003.4 mb 0.00 in0.0 mm 0.00 in/hr0.0 mm/hr 0.00 in0.0 mm
03:35 AM 44.6°F7.0°C 42.8°F6.0°C 95% 4.5 mph N7.2 kmh N 7.9 mph12.7 kmh 29.63 in1003.4 mb 0.00 in0.0 mm 0.00 in/hr0.0 mm/hr 0.00 in0.0 mm
03:30 AM 44.5°F6.9°C 42.7°F5.9°C 95% 5.4 mph NNE8.7 kmh NNE 9.3 mph15.0 kmh 29.63 in1003.4 mb 0.00 in0.0 mm 0.00 in/hr0.0 mm/hr 0.00 in0.0 mm
03:25 AM 44.5°F6.9°C 42.7°F5.9°C 95% 4.1 mph N6.6 kmh N 7.0 mph11.3 kmh 29.63 in1003.4 mb 0.00 in0.0 mm 0.00 in/hr0.0 mm/hr 0.00 in0.0 mm
03:20 AM 44.5°F6.9°C 42.7°F5.9°C 95% 4.4 mph N7.1 kmh N 8.4 mph13.5 kmh 29.63 in1003.4 mb 0.00 in0.0 mm 0.00 in/hr0.0 mm/hr 0.00 in0.0 mm
03:15 AM 44.5°F6.9°C 42.7°F5.9°C 95% 4.6 mph N7.4 kmh N 7.7 mph12.4 kmh 29.63 in1003.4 mb 0.00 in0.0 mm 0.00 in/hr0.0 mm/hr 0.00 in0.0 mm
03:10 AM 44.4°F6.9°C 42.6°F5.9°C 95% 4.0 mph N6.4 kmh N 8.5 mph13.7 kmh 29.63 in1003.4 mb 0.00 in0.0 mm 0.00 in/hr0.0 mm/hr 0.00 in0.0 mm
03:05 AM 44.3°F6.8°C 42.5°F5.8°C 95% 5.9 mph NNW9.5 kmh NNW 10.3 mph16.6 kmh 29.63 in1003.4 mb 0.00 in0.0 mm 0.00 in/hr0.0 mm/hr 0.00 in0.0 mm
03:00 AM 44.2°F6.8°C 42.4°F5.8°C 95% 5.8 mph N9.3 kmh N 10.3 mph16.6 kmh 29.63 in1003.4 mb 0.00 in0.0 mm 0.00 in/hr0.0 mm/hr 0.00 in0.0 mm
02:55 AM 44.2°F6.8°C 42.8°F6.0°C 96% 5.2 mph NNW8.4 kmh NNW 8.9 mph14.3 kmh 29.63 in1003.4 mb 0.00 in0.0 mm 0.00 in/hr0.0 mm/hr 0.00 in0.0 mm
02:50 AM 44.2°F6.8°C 42.7°F5.9°C 96% 4.8 mph NNW7.7 kmh NNW 7.5 mph12.1 kmh 29.63 in1003.4 mb 0.00 in0.0 mm 0.00 in/hr0.0 mm/hr 0.00 in0.0 mm
02:45 AM 44.1°F6.7°C 42.7°F5.9°C 96% 4.5 mph NNW7.2 kmh NNW 7.0 mph11.3 kmh 29.63 in1003.4 mb 0.00 in0.0 mm 0.00 in/hr0.0 mm/hr 0.00 in0.0 mm
02:40 AM 44.1°F6.7°C 42.7°F5.9°C 96% 5.9 mph N9.5 kmh N 9.5 mph15.3 kmh 29.63 in1003.4 mb 0.00 in0.0 mm 0.00 in/hr0.0 mm/hr 0.00 in0.0 mm
02:35 AM 44.1°F6.7°C 42.7°F5.9°C 96% 5.6 mph N9.0 kmh N 9.0 mph14.5 kmh 29.63 in1003.4 mb 0.00 in0.0 mm 0.00 in/hr0.0 mm/hr 0.00 in0.0 mm
02:30 AM 44.0°F6.7°C 42.6°F5.9°C 96% 5.6 mph N9.0 kmh N 10.0 mph16.1 kmh 29.63 in1003.4 mb 0.00 in0.0 mm 0.00 in/hr0.0 mm/hr 0.00 in0.0 mm
02:25 AM 44.0°F6.7°C 42.6°F5.9°C 96% 5.2 mph N8.4 kmh N 10.6 mph17.1 kmh 29.63 in1003.4 mb 0.00 in0.0 mm 0.00 in/hr0.0 mm/hr 0.00 in0.0 mm
02:20 AM 44.0°F6.7°C 42.6°F5.9°C 96% 6.2 mph N10.0 kmh N 10.3 mph16.6 kmh 29.63 in1003.4 mb 0.00 in0.0 mm 0.00 in/hr0.0 mm/hr 0.00 in0.0 mm
02:15 AM 44.0°F6.7°C 42.6°F5.9°C 96% 6.2 mph N10.0 kmh N 11.4 mph18.3 kmh 29.63 in1003.4 mb 0.00 in0.0 mm 0.00 in/hr0.0 mm/hr 0.00 in0.0 mm
02:10 AM 44.0°F6.7°C 42.6°F5.9°C 96% 4.9 mph NNW7.9 kmh NNW 9.3 mph15.0 kmh 29.63 in1003.4 mb 0.00 in0.0 mm 0.00 in/hr0.0 mm/hr 0.00 in0.0 mm
02:05 AM 44.0°F6.7°C 42.6°F5.9°C 96% 5.3 mph N8.5 kmh N 9.0 mph14.5 kmh 29.63 in1003.4 mb 0.00 in0.0 mm 0.00 in/hr0.0 mm/hr 0.00 in0.0 mm
02:00 AM 44.0°F6.7°C 42.6°F5.9°C 96% 4.6 mph N7.4 kmh N 7.2 mph11.6 kmh 29.62 in1003.0 mb 0.00 in0.0 mm 0.00 in/hr0.0 mm/hr 0.00 in0.0 mm
01:55 AM 44.0°F6.7°C 42.6°F5.9°C 96% 5.3 mph N8.5 kmh N 9.0 mph14.5 kmh 29.63 in1003.4 mb 0.00 in0.0 mm 0.00 in/hr0.0 mm/hr 0.00 in0.0 mm
01:50 AM 44.0°F6.7°C 42.6°F5.9°C 96% 5.7 mph N9.2 kmh N 11.6 mph18.7 kmh 29.63 in1003.4 mb 0.00 in0.0 mm 0.00 in/hr0.0 mm/hr 0.00 in0.0 mm
01:45 AM 44.0°F6.7°C 42.6°F5.9°C 96% 5.5 mph NNW8.9 kmh NNW 11.1 mph17.9 kmh 29.62 in1003.0 mb 0.00 in0.0 mm 0.00 in/hr0.0 mm/hr 0.00 in0.0 mm
01:40 AM 43.8°F6.6°C 42.4°F5.8°C 96% 6.2 mph N10.0 kmh N 10.3 mph16.6 kmh 29.62 in1003.0 mb 0.00 in0.0 mm 0.00 in/hr0.0 mm/hr 0.00 in0.0 mm
01:35 AM 43.8°F6.6°C 42.4°F5.8°C 96% 6.0 mph NNW9.7 kmh NNW 10.0 mph16.1 kmh 29.62 in1003.0 mb 0.00 in0.0 mm 0.00 in/hr0.0 mm/hr 0.00 in0.0 mm
01:30 AM 43.8°F6.6°C 42.4°F5.8°C 96% 6.0 mph NNW9.7 kmh NNW 10.5 mph16.9 kmh 29.62 in1003.0 mb 0.00 in0.0 mm 0.00 in/hr0.0 mm/hr 0.00 in0.0 mm
01:25 AM 43.8°F6.6°C 42.3°F5.7°C 96% 5.9 mph N9.5 kmh N 9.5 mph15.3 kmh 29.62 in1003.0 mb 0.00 in0.0 mm 0.00 in/hr0.0 mm/hr 0.00 in0.0 mm
01:20 AM 43.7°F6.5°C 42.3°F5.7°C 96% 5.6 mph N9.0 kmh N 11.6 mph18.7 kmh 29.62 in1003.0 mb 0.00 in0.0 mm 0.00 in/hr0.0 mm/hr 0.00 in0.0 mm
01:15 AM 43.7°F6.5°C 42.3°F5.7°C 96% 5.1 mph N8.2 kmh N 7.7 mph12.4 kmh 29.62 in1003.0 mb 0.00 in0.0 mm 0.00 in/hr0.0 mm/hr 0.00 in0.0 mm
01:10 AM 43.7°F6.5°C 42.3°F5.7°C 96% 6.1 mph N9.8 kmh N 10.0 mph16.1 kmh 29.62 in1003.0 mb 0.00 in0.0 mm 0.00 in/hr0.0 mm/hr 0.00 in0.0 mm
01:05 AM 43.7°F6.5°C 42.3°F5.7°C 96% 5.1 mph N8.2 kmh N 10.3 mph16.6 kmh 29.62 in1003.0 mb 0.00 in0.0 mm 0.00 in/hr0.0 mm/hr 0.00 in0.0 mm
01:00 AM 43.6°F6.4°C 42.2°F5.7°C 96% 6.5 mph N10.5 kmh N 10.6 mph17.1 kmh 29.62 in1003.0 mb 0.00 in0.0 mm 0.00 in/hr0.0 mm/hr 0.00 in0.0 mm
12:55 AM 43.6°F6.4°C 42.1°F5.6°C 96% 5.2 mph N8.4 kmh N 9.0 mph14.5 kmh 29.62 in1003.0 mb 0.00 in0.0 mm 0.00 in/hr0.0 mm/hr 0.00 in0.0 mm
12:50 AM 43.6°F6.4°C 42.2°F5.7°C 96% 5.6 mph N9.0 kmh N 8.4 mph13.5 kmh 29.62 in1003.0 mb 0.00 in0.0 mm 0.00 in/hr0.0 mm/hr 0.00 in0.0 mm
12:45 AM 43.6°F6.4°C 42.1°F5.6°C 96% 5.5 mph N8.9 kmh N 8.5 mph13.7 kmh 29.62 in1003.0 mb 0.00 in0.0 mm 0.00 in/hr0.0 mm/hr 0.00 in0.0 mm
12:40 AM 43.6°F6.4°C 42.1°F5.6°C 96% 5.7 mph N9.2 kmh N 8.5 mph13.7 kmh 29.62 in1003.0 mb 0.00 in0.0 mm 0.00 in/hr0.0 mm/hr 0.00 in0.0 mm
12:35 AM 43.5°F6.4°C 42.1°F5.6°C 96% 5.4 mph N8.7 kmh N 10.0 mph16.1 kmh 29.62 in1003.0 mb 0.00 in0.0 mm 0.00 in/hr0.0 mm/hr 0.00 in0.0 mm
12:30 AM 43.5°F6.4°C 42.1°F5.6°C 96% 7.1 mph N11.4 kmh N 10.6 mph17.1 kmh 29.62 in1003.0 mb 0.00 in0.0 mm 0.00 in/hr0.0 mm/hr 0.00 in0.0 mm
12:25 AM 43.5°F6.4°C 42.4°F5.8°C 97% 6.6 mph N10.6 kmh N 13.0 mph20.9 kmh 29.62 in1003.0 mb 0.00 in0.0 mm 0.00 in/hr0.0 mm/hr 0.00 in0.0 mm
12:20 AM 43.5°F6.4°C 42.4°F5.8°C 97% 5.6 mph N9.0 kmh N 10.0 mph16.1 kmh 29.63 in1003.4 mb 0.00 in0.0 mm 0.00 in/hr0.0 mm/hr 0.00 in0.0 mm
12:15 AM 43.5°F6.4°C 42.4°F5.8°C 97% 6.0 mph NNE9.7 kmh NNE 11.0 mph17.7 kmh 29.62 in1003.0 mb 0.00 in0.0 mm 0.00 in/hr0.0 mm/hr 0.00 in0.0 mm
12:10 AM 43.4°F6.3°C 42.3°F5.7°C 97% 5.9 mph N9.5 kmh N 11.4 mph18.3 kmh 29.63 in1003.4 mb 0.00 in0.0 mm 0.00 in/hr0.0 mm/hr 0.00 in0.0 mm
12:05 AM 43.3°F6.3°C 42.2°F5.7°C 97% 6.8 mph N10.9 kmh N 12.8 mph20.6 kmh 29.63 in1003.4 mb 0.00 in0.0 mm 0.00 in/hr0.0 mm/hr 0.00 in0.0 mm
12:00 AM 43.3°F6.3°C 42.2°F5.7°C 97% 4.9 mph N7.9 kmh N 7.5 mph12.1 kmh 29.63 in1003.4 mb 0.00 in0.0 mm 0.00 in/hr0.0 mm/hr 0.11 in2.8 mm
WeatherForYou.com, LLC is not responsible for any damages or problems caused by this service. Current weather conditions are obtained from the closest station including government and personal stations which may have varying degrees of accuracy. Weather forecasts are derived from the NOAA NDFD and obtained through HAMweather's Aeris Weather API. Like all things, this site belongs to Jesus Christ... He just trusts me to maintain it. If you have any questions or comments email webmaster@weatherforyou.com

Copyright © 2014, WeatherForYou.com LLC. All rights reserved.